createdAt,value
2023-01-22T00:02:15.421Z,53.60
2023-01-22T00:05:18.887Z,53.00
2023-01-22T00:08:22.374Z,52.60
2023-01-22T00:11:25.705Z,52.00
2023-01-22T00:14:30.285Z,53.00
2023-01-22T00:17:33.640Z,55.00
2023-01-22T00:20:37.017Z,53.00
2023-01-22T00:23:40.691Z,53.00
2023-01-22T00:26:44.199Z,52.40
2023-01-22T00:29:48.824Z,53.20
2023-01-22T00:32:52.577Z,51.80
2023-01-22T00:35:55.851Z,52.00
2023-01-22T00:38:59.249Z,52.60
2023-01-22T00:42:02.538Z,54.20
2023-01-22T00:45:08.657Z,50.60
2023-01-22T00:48:11.939Z,49.80
2023-01-22T00:51:15.879Z,49.00
2023-01-22T00:54:19.343Z,47.60
2023-01-22T00:57:22.611Z,50.40
2023-01-22T01:00:27.485Z,50.20
2023-01-22T01:03:33.957Z,50.00
2023-01-22T01:06:37.292Z,50.00
2023-01-22T01:09:40.549Z,49.40
2023-01-22T01:12:43.827Z,50.00
2023-01-22T01:15:48.549Z,54.50
2023-01-22T01:18:52.508Z,51.20
2023-01-22T01:21:55.857Z,45.80
2023-01-22T01:24:59.869Z,45.00
2023-01-22T01:28:05.372Z,47.40
2023-01-22T01:31:12.835Z,45.60
2023-01-22T01:34:16.231Z,47.80
2023-01-22T01:37:19.488Z,49.00
2023-01-22T01:40:23.101Z,43.00
2023-01-22T01:43:27.033Z,45.80
2023-01-22T01:46:31.861Z,45.00
2023-01-22T01:49:43.409Z,46.75
2023-01-22T01:52:47.489Z,46.60
2023-01-22T01:55:51.148Z,46.00
2023-01-22T01:58:58.691Z,50.20
2023-01-22T02:02:04.586Z,46.00
2023-01-22T02:05:09.455Z,48.50
2023-01-22T02:08:13.145Z,47.20
2023-01-22T02:11:18.251Z,46.80
2023-01-22T02:14:26.176Z,45.00
2023-01-22T02:17:31.191Z,46.00
2023-01-22T02:20:37.606Z,40.80
2023-01-22T02:23:43.970Z,46.33
2023-01-22T02:26:47.491Z,44.60
2023-01-22T02:29:55.318Z,42.00
2023-01-22T02:32:58.840Z,40.00
2023-01-22T02:36:03.508Z,40.00
2023-01-22T02:39:07.494Z,38.40
2023-01-22T02:42:11.139Z,37.00
2023-01-22T02:45:17.156Z,37.80
2023-01-22T02:48:20.471Z,43.80
2023-01-22T02:51:26.683Z,38.00
2023-01-22T02:54:30.565Z,39.60
2023-01-22T02:57:33.949Z,37.40
2023-01-22T03:00:37.547Z,40.50
2023-01-22T03:03:40.892Z,37.80
2023-01-22T03:06:47.984Z,37.00
2023-01-22T03:09:51.199Z,36.00
2023-01-22T03:13:11.884Z,32.40
2023-01-22T03:16:32.608Z,34.00
2023-01-22T03:19:53.026Z,32.40
2023-01-22T03:22:58.099Z,30.50
2023-01-22T03:26:01.828Z,34.40
2023-01-22T03:29:05.147Z,32.20
2023-01-22T03:32:08.725Z,28.25
2023-01-22T03:35:13.324Z,33.50
2023-01-22T03:38:33.164Z,36.33
2023-01-22T03:41:37.667Z,29.80
2023-01-22T03:44:42.248Z,27.00
2023-01-22T03:47:45.497Z,33.00
2023-01-22T03:50:58.927Z,34.60
2023-01-22T03:54:03.764Z,29.20
2023-01-22T03:57:07.074Z,25.00
2023-01-22T04:00:14.619Z,29.60
2023-01-22T04:03:19.428Z,34.40
2023-01-22T04:06:23.599Z,29.00
2023-01-22T04:09:28.816Z,28.67
2023-01-22T04:12:33.592Z,30.60
2023-01-22T04:15:37.076Z,27.00
2023-01-22T04:18:49.742Z,27.50
2023-01-22T04:22:13.287Z,31.40
2023-01-22T04:25:18.550Z,27.00
2023-01-22T04:28:22.333Z,25.40
2023-01-22T04:31:29.996Z,28.00
2023-01-22T04:34:51.925Z,29.40
2023-01-22T04:38:13.883Z,30.20
2023-01-22T04:41:19.613Z,23.60
2023-01-22T04:44:23.784Z,29.50
2023-01-22T04:47:27.146Z,28.40
2023-01-22T04:50:33.724Z,28.00
2023-01-22T04:53:37.177Z,28.25
2023-01-22T04:56:44.027Z,26.00
2023-01-22T04:59:47.453Z,26.75
2023-01-22T05:02:50.754Z,26.60
2023-01-22T05:05:54.195Z,24.40
2023-01-22T05:08:58.545Z,22.20
2023-01-22T05:12:04.228Z,21.00
2023-01-22T05:15:23.621Z,28.00
2023-01-22T05:18:30.043Z,27.00
2023-01-22T05:21:34.593Z,23.00
2023-01-22T05:24:37.896Z,23.40
2023-01-22T05:27:42.996Z,21.60
2023-01-22T05:30:51.916Z,24.60
2023-01-22T05:34:10.788Z,18.25
2023-01-22T05:37:15.503Z,26.40
2023-01-22T05:40:19.018Z,24.75
2023-01-22T05:43:24.265Z,20.20
2023-01-22T05:46:33.713Z,20.00
2023-01-22T05:49:47.187Z,23.00
2023-01-22T05:52:55.998Z,25.40
2023-01-22T05:56:02.757Z,21.60
2023-01-22T05:59:12.965Z,22.40
2023-01-22T06:02:17.316Z,21.75
2023-01-22T06:05:21.644Z,24.00
2023-01-22T06:08:34.397Z,21.20
2023-01-22T06:11:37.864Z,23.00
2023-01-22T06:14:42.712Z,21.00
2023-01-22T06:17:47.789Z,23.40
2023-01-22T06:20:52.073Z,19.60
2023-01-22T06:23:55.594Z,18.00
2023-01-22T06:26:58.966Z,22.67
2023-01-22T06:30:14.507Z,19.40
2023-01-22T06:33:17.851Z,20.00
2023-01-22T06:36:21.005Z,20.80
2023-01-22T06:39:24.279Z,20.00
2023-01-22T06:42:39.120Z,22.25
2023-01-22T06:45:44.602Z,21.60
2023-01-22T06:48:49.856Z,19.00
2023-01-22T06:51:53.436Z,23.00
2023-01-22T06:54:56.715Z,25.00
2023-01-22T06:58:02.379Z,20.40
2023-01-22T07:01:07.801Z,18.00
2023-01-22T07:04:11.104Z,17.00
2023-01-22T07:07:15.088Z,20.00
2023-01-22T07:10:18.571Z,18.00
2023-01-22T07:13:22.624Z,19.00
2023-01-22T07:16:27.343Z,18.25
2023-01-22T07:19:30.700Z,20.00
2023-01-22T07:22:33.972Z,19.40
2023-01-22T07:25:37.211Z,13.40
2023-01-22T07:28:40.880Z,17.00
2023-01-22T07:31:49.642Z,16.80
2023-01-22T07:34:53.300Z,20.00
2023-01-22T07:37:58.035Z,22.00
2023-01-22T07:41:03.371Z,18.00
2023-01-22T07:44:08.511Z,19.00
2023-01-22T07:47:13.167Z,17.60
2023-01-22T07:50:17.353Z,17.80
2023-01-22T07:53:20.817Z,18.00
2023-01-22T07:56:24.130Z,18.00
2023-01-22T07:59:28.032Z,14.20
2023-01-22T08:02:32.844Z,17.00
2023-01-22T08:05:36.369Z,15.50
2023-01-22T08:08:40.198Z,17.00
2023-01-22T08:11:43.548Z,18.00
2023-01-22T08:14:46.870Z,18.00
2023-01-22T08:17:52.360Z,22.00
2023-01-22T08:20:55.774Z,18.50
2023-01-22T08:23:59.059Z,24.00
2023-01-22T08:27:02.781Z,22.25
2023-01-22T08:30:08.106Z,21.60
2023-01-22T08:33:13.005Z,21.50
2023-01-22T08:36:16.365Z,23.50
2023-01-22T08:39:19.607Z,23.50
2023-01-22T08:42:22.907Z,20.40
2023-01-22T08:45:26.282Z,23.60
2023-01-22T08:48:30.942Z,23.50
2023-01-22T08:51:34.873Z,22.80
2023-01-22T08:54:38.083Z,19.60
2023-01-22T08:57:41.366Z,19.00
2023-01-22T09:00:45.669Z,22.00
2023-01-22T09:03:50.739Z,23.50
2023-01-22T09:06:54.061Z,28.60
2023-01-22T09:09:57.351Z,24.00
2023-01-22T09:13:00.837Z,19.40
2023-01-22T09:16:06.025Z,22.75
2023-01-22T09:19:12.530Z,24.00
2023-01-22T09:22:15.812Z,23.00
2023-01-22T09:25:19.388Z,18.40
2023-01-22T09:28:22.732Z,21.25
2023-01-22T09:31:26.080Z,22.80
2023-01-22T09:34:30.719Z,20.60
2023-01-22T09:37:34.413Z,20.00
2023-01-22T09:40:44.664Z,23.40
2023-01-22T09:43:53.282Z,21.00
2023-01-22T09:47:01.352Z,22.00
2023-01-22T09:50:09.239Z,24.75
2023-01-22T09:53:17.539Z,19.00
2023-01-22T09:56:23.579Z,23.00
2023-01-22T09:59:28.642Z,24.00
2023-01-22T10:02:37.715Z,20.00
2023-01-22T10:05:44.914Z,21.00
2023-01-22T10:09:10.821Z,21.00
2023-01-22T10:12:15.203Z,24.40
2023-01-22T10:15:21.717Z,23.00
2023-01-22T10:18:36.109Z,24.00
2023-01-22T10:21:48.740Z,26.60
2023-01-22T10:24:52.650Z,24.00
2023-01-22T10:28:01.050Z,20.25
2023-01-22T10:31:04.440Z,26.80
2023-01-22T10:34:14.825Z,28.00
2023-01-22T10:37:20.238Z,24.00
2023-01-22T10:40:26.633Z,27.00
2023-01-22T10:43:35.003Z,20.00
2023-01-22T10:46:38.653Z,25.80
2023-01-22T10:49:42.003Z,27.00
2023-01-22T10:52:51.532Z,24.40
2023-01-22T10:55:56.708Z,24.75
2023-01-22T10:59:01.379Z,22.50
2023-01-22T11:02:14.906Z,23.75
2023-01-22T11:05:21.094Z,22.75
2023-01-22T11:08:31.010Z,19.50
2023-01-22T11:11:39.952Z,24.40
2023-01-22T11:14:44.066Z,24.00
2023-01-22T11:17:52.583Z,23.00
2023-01-22T11:20:58.189Z,21.00
2023-01-22T11:24:08.310Z,23.80
2023-01-22T11:27:27.018Z,19.60
2023-01-22T11:31:01.441Z,23.00
2023-01-22T11:34:20.397Z,23.60
2023-01-22T11:37:49.369Z,27.00
2023-01-22T11:41:17.801Z,24.00
2023-01-22T11:44:41.075Z,31.60
2023-01-22T11:48:23.080Z,26.00
2023-01-22T11:51:34.835Z,25.60
2023-01-22T11:54:54.550Z,25.60
2023-01-22T11:58:08.623Z,29.00
2023-01-22T12:01:20.762Z,28.00
2023-01-22T12:04:47.477Z,21.75
2023-01-22T12:08:12.884Z,28.00
2023-01-22T12:11:34.746Z,27.60
2023-01-22T12:14:55.172Z,24.20
2023-01-22T12:18:21.434Z,32.00
2023-01-22T12:21:40.473Z,28.50
2023-01-22T12:24:49.008Z,26.00
2023-01-22T12:27:59.189Z,27.50
2023-01-22T12:31:09.532Z,28.60
2023-01-22T12:34:18.350Z,27.60
2023-01-22T12:37:26.425Z,28.40
2023-01-22T12:40:59.743Z,28.67
2023-01-22T12:44:11.976Z,25.80
2023-01-22T12:47:22.741Z,30.00
2023-01-22T12:50:28.217Z,31.00
2023-01-22T12:53:34.440Z,32.00
2023-01-22T12:56:38.720Z,32.00
2023-01-22T12:59:46.559Z,31.50
2023-01-22T13:02:52.062Z,28.00
2023-01-22T13:05:55.940Z,29.40
2023-01-22T13:08:59.214Z,36.00
2023-01-22T13:12:09.471Z,30.20
2023-01-22T13:15:18.359Z,32.40
2023-01-22T13:18:25.935Z,31.60
2023-01-22T13:21:31.399Z,35.00
2023-01-22T13:24:34.745Z,34.80
2023-01-22T13:27:38.695Z,35.00
2023-01-22T13:30:42.294Z,32.60
2023-01-22T13:33:56.531Z,33.00
2023-01-22T13:37:00.384Z,31.40
2023-01-22T13:40:13.199Z,32.00
2023-01-22T13:43:19.500Z,30.60
2023-01-22T13:46:23.261Z,31.00
2023-01-22T13:49:29.867Z,32.00
2023-01-22T13:52:33.665Z,28.75
2023-01-22T13:55:36.924Z,31.00
2023-01-22T13:58:49.398Z,33.40
2023-01-22T14:01:53.452Z,30.60
2023-01-22T14:04:58.655Z,27.00
2023-01-22T14:08:07.692Z,28.20
2023-01-22T14:11:11.017Z,31.00
2023-01-22T14:14:18.586Z,34.50
2023-01-22T14:17:23.707Z,30.00
2023-01-22T14:20:28.664Z,32.60
2023-01-22T14:23:32.287Z,33.60
2023-01-22T14:26:35.874Z,29.40
2023-01-22T14:29:39.243Z,31.25
2023-01-22T14:32:42.761Z,29.00
2023-01-22T14:35:47.477Z,31.40
2023-01-22T14:38:53.648Z,32.50
2023-01-22T14:41:57.053Z,29.00
2023-01-22T14:45:00.633Z,34.60
2023-01-22T14:48:05.080Z,33.00
2023-01-22T14:51:13.368Z,32.50
2023-01-22T14:54:16.718Z,35.00
2023-01-22T14:57:19.948Z,32.50
2023-01-22T15:00:23.629Z,36.20
2023-01-22T15:03:31.836Z,33.25
2023-01-22T15:06:36.498Z,39.60
2023-01-22T15:09:40.043Z,40.40
2023-01-22T15:12:48.216Z,34.40
2023-01-22T15:15:51.524Z,37.25
2023-01-22T15:18:56.597Z,34.40
2023-01-22T15:22:03.324Z,39.75
2023-01-22T15:25:08.193Z,35.40
2023-01-22T15:28:11.418Z,37.75
2023-01-22T15:31:14.757Z,40.00
2023-01-22T15:34:18.281Z,39.00
2023-01-22T15:37:23.894Z,41.75
2023-01-22T15:40:27.162Z,38.75
2023-01-22T15:43:30.380Z,38.60
2023-01-22T15:46:35.703Z,41.50
2023-01-22T15:49:39.095Z,37.20
2023-01-22T15:52:43.711Z,38.80
2023-01-22T15:55:50.400Z,40.75
2023-01-22T15:58:54.296Z,39.00
2023-01-22T16:01:57.563Z,33.75
2023-01-22T16:05:00.820Z,36.20
2023-01-22T16:08:06.333Z,41.00
2023-01-22T16:11:10.416Z,38.00
2023-01-22T16:14:13.704Z,39.00
2023-01-22T16:17:17.287Z,34.00
2023-01-22T16:20:20.886Z,42.75
2023-01-22T16:23:25.825Z,39.00
2023-01-22T16:26:31.927Z,34.60
2023-01-22T16:29:35.140Z,34.60
2023-01-22T16:32:42.580Z,35.60
2023-01-22T16:35:45.977Z,36.00
2023-01-22T16:38:51.215Z,44.00
2023-01-22T16:41:54.805Z,41.00
2023-01-22T16:44:58.214Z,42.60
2023-01-22T16:48:01.822Z,37.60
2023-01-22T16:51:06.119Z,39.40
2023-01-22T16:54:17.453Z,36.25
2023-01-22T16:57:20.689Z,37.00
2023-01-22T17:00:24.014Z,37.00
2023-01-22T17:03:27.303Z,34.40
2023-01-22T17:06:34.224Z,36.40
2023-01-22T17:09:40.200Z,39.00
2023-01-22T17:12:44.039Z,37.80
2023-01-22T17:15:50.382Z,43.40
2023-01-22T17:18:55.277Z,37.00
2023-01-22T17:21:59.411Z,38.00
2023-01-22T17:25:04.892Z,43.75
2023-01-22T17:28:09.024Z,36.00
2023-01-22T17:31:15.522Z,40.40
2023-01-22T17:34:18.820Z,41.00
2023-01-22T17:37:22.684Z,42.60
2023-01-22T17:40:27.687Z,39.80
2023-01-22T17:43:31.007Z,36.00
2023-01-22T17:46:35.820Z,32.00
2023-01-22T17:49:39.628Z,38.60
2023-01-22T17:52:43.014Z,39.20
2023-01-22T17:55:47.832Z,37.75
2023-01-22T17:58:54.144Z,34.20
2023-01-22T18:01:57.534Z,38.20
2023-01-22T18:05:00.806Z,36.50
2023-01-22T18:08:04.091Z,41.20
2023-01-22T18:11:11.208Z,45.00
2023-01-22T18:14:21.679Z,44.00
2023-01-22T18:17:25.248Z,46.00
2023-01-22T18:20:28.718Z,47.60
2023-01-22T18:23:32.123Z,47.40
2023-01-22T18:26:37.821Z,49.00
2023-01-22T18:29:41.022Z,45.00
2023-01-22T18:32:44.385Z,48.67
2023-01-22T18:35:50.033Z,47.20
2023-01-22T18:38:54.356Z,51.60
2023-01-22T18:41:59.029Z,49.00
2023-01-22T18:45:02.358Z,44.60
2023-01-22T18:48:06.308Z,44.20
2023-01-22T18:51:13.208Z,49.00
2023-01-22T18:54:17.486Z,45.20
2023-01-22T18:57:22.862Z,47.40
2023-01-22T19:00:26.119Z,42.80
2023-01-22T19:03:29.346Z,43.40
2023-01-22T19:06:36.529Z,43.25
2023-01-22T19:09:40.381Z,46.40
2023-01-22T19:12:45.170Z,47.00
2023-01-22T19:15:48.546Z,41.00
2023-01-22T19:18:55.326Z,41.33
2023-01-22T19:21:58.778Z,42.40
2023-01-22T19:25:02.864Z,46.75
2023-01-22T19:28:07.952Z,42.20
2023-01-22T19:31:19.257Z,49.00
2023-01-22T19:34:24.929Z,46.40
2023-01-22T19:37:29.514Z,46.00
2023-01-22T19:40:33.073Z,45.00
2023-01-22T19:43:37.832Z,41.50
2023-01-22T19:46:41.522Z,46.40
2023-01-22T19:49:44.932Z,45.00
2023-01-22T19:52:48.362Z,47.60
2023-01-22T19:55:51.607Z,47.00
2023-01-22T19:59:01.122Z,46.00
2023-01-22T20:02:04.521Z,48.40
2023-01-22T20:05:08.953Z,48.60
2023-01-22T20:08:13.824Z,49.40
2023-01-22T20:11:17.207Z,50.00
2023-01-22T20:14:22.434Z,50.75
2023-01-22T20:17:25.747Z,50.00
2023-01-22T20:20:29.084Z,48.40
2023-01-22T20:23:32.622Z,50.00
2023-01-22T20:26:36.427Z,48.00
2023-01-22T20:29:41.567Z,55.40
2023-01-22T20:32:45.090Z,52.40
2023-01-22T20:35:48.416Z,57.40
2023-01-22T20:38:53.781Z,57.00
2023-01-22T20:41:57.004Z,57.50
2023-01-22T20:45:02.248Z,54.80
2023-01-22T20:48:05.711Z,53.00
2023-01-22T20:51:15.291Z,53.60
2023-01-22T20:54:19.604Z,55.00
2023-01-22T20:57:22.891Z,53.40
2023-01-22T21:00:27.661Z,53.75
2023-01-22T21:03:31.727Z,55.00
2023-01-22T21:06:37.403Z,53.00
2023-01-22T21:09:41.132Z,55.20
2023-01-22T21:12:46.730Z,51.00
2023-01-22T21:15:51.852Z,50.60
2023-01-22T21:18:56.028Z,52.60
2023-01-22T21:22:00.717Z,42.50
2023-01-22T21:25:04.306Z,45.00
2023-01-22T21:28:07.886Z,40.00
2023-01-22T21:31:15.267Z,40.00
2023-01-22T21:34:20.489Z,36.80
2023-01-22T21:37:23.878Z,45.00
2023-01-22T21:40:27.338Z,44.25
2023-01-22T21:43:48.156Z,39.00
2023-01-22T21:46:53.329Z,35.80
2023-01-22T21:49:57.797Z,37.00
2023-01-22T21:53:01.226Z,43.40
2023-01-22T21:56:05.002Z,38.60
2023-01-22T21:59:08.875Z,35.00
2023-01-22T22:02:17.628Z,33.00
2023-01-22T22:05:21.505Z,35.00
2023-01-22T22:08:24.723Z,31.00
2023-01-22T22:11:28.666Z,33.40
2023-01-22T22:14:33.032Z,31.00
2023-01-22T22:17:37.919Z,33.00
2023-01-22T22:20:41.271Z,30.20
2023-01-22T22:23:44.943Z,28.25
2023-01-22T22:26:48.582Z,32.20
2023-01-22T22:29:53.561Z,31.00
2023-01-22T22:32:58.992Z,31.00
2023-01-22T22:36:03.044Z,28.50
2023-01-22T22:39:07.330Z,26.40
2023-01-22T22:42:10.774Z,34.00
2023-01-22T22:45:14.153Z,28.00
2023-01-22T22:48:19.480Z,35.40
2023-01-22T22:51:24.374Z,34.00
2023-01-22T22:54:27.813Z,31.00
2023-01-22T22:57:31.564Z,35.60
2023-01-22T23:00:34.794Z,35.80
2023-01-22T23:03:40.113Z,34.20
2023-01-22T23:06:45.285Z,33.40
2023-01-22T23:09:48.700Z,34.00
2023-01-22T23:12:51.988Z,33.00
2023-01-22T23:16:00.184Z,29.50
2023-01-22T23:19:07.809Z,27.80
2023-01-22T23:22:11.075Z,29.80
2023-01-22T23:25:14.503Z,26.00
2023-01-22T23:28:17.754Z,29.40
2023-01-22T23:31:21.256Z,25.50
2023-01-22T23:34:25.983Z,26.80
2023-01-22T23:37:29.278Z,26.00
2023-01-22T23:40:33.870Z,27.00
2023-01-22T23:43:37.512Z,27.20
2023-01-22T23:46:44.877Z,29.40
2023-01-22T23:49:49.566Z,27.00
2023-01-22T23:52:52.830Z,26.80
2023-01-22T23:55:59.321Z,26.75
2023-01-22T23:59:02.785Z,23.00
